Time;durP1;ratioP1;P1;durP2;ratioP2;P2;SDS_P1;SDS_P2;PMS_P1;PMS_P2;Temp;Humidity;BMP_temperature;BMP_pressure;BME280_temperature;BME280_humidity;BME280_pressure;Samples;Min_cycle;Max_cycle;Signal;HPM_P1;HPM_P2
2022/07/22 00:01:20;;;;;;;9.07;1.70;;;16.40;99.90;;;;;;5084328;28;20051;-86
2022/07/22 00:04:07;;;;;;;8.95;1.65;;;16.40;99.90;;;;;;5084283;28;20112;-88
2022/07/22 00:06:53;;;;;;;8.80;1.40;;;16.40;99.90;;;;;;5082170;28;20079;-88
2022/07/22 00:09:39;;;;;;;5.50;1.27;;;16.40;99.90;;;;;;5083165;28;20050;-86
2022/07/22 00:12:26;;;;;;;9.52;1.45;;;16.40;99.90;;;;;;5085147;28;20072;-89
2022/07/22 00:15:12;;;;;;;8.07;1.23;;;16.40;99.90;;;;;;5086836;28;20056;-87
2022/07/22 00:17:59;;;;;;;7.95;2.03;;;16.40;99.90;;;;;;5086478;28;20053;-89
2022/07/22 00:20:48;;;;;;;10.13;1.90;;;16.40;99.90;;;;;;5071677;28;20055;-88
2022/07/22 00:23:37;;;;;;;15.25;3.20;;;16.40;99.90;;;;;;5070963;28;20149;-89
2022/07/22 00:26:24;;;;;;;13.80;2.10;;;16.30;99.90;;;;;;5073096;28;20112;-89
2022/07/22 00:29:10;;;;;;;8.27;2.15;;;16.30;99.90;;;;;;5085714;28;20052;-88
2022/07/22 00:31:56;;;;;;;11.57;1.67;;;16.30;99.90;;;;;;5082871;28;20503;-87
2022/07/22 00:34:42;;;;;;;10.95;2.85;;;16.30;99.90;;;;;;5081361;28;20082;-89
2022/07/22 00:37:29;;;;;;;9.63;1.83;;;16.30;99.90;;;;;;5084341;28;20105;-86
2022/07/22 00:40:23;;;;;;;12.40;1.80;;;16.30;99.90;;;;;;5084490;28;20078;-87
2022/07/22 00:43:10;;;;;;;7.32;1.83;;;16.30;99.90;;;;;;5086671;28;20043;-88
2022/07/22 00:45:56;;;;;;;6.25;1.48;;;16.30;99.90;;;;;;5088314;28;20049;-87
2022/07/22 00:48:42;;;;;;;10.23;1.88;;;16.30;99.90;;;;;;5086697;28;20044;-87
2022/07/22 00:51:30;;;;;;;9.65;1.65;;;16.30;99.90;;;;;;5089563;28;20044;-88
2022/07/22 00:54:16;;;;;;;7.50;1.85;;;16.30;99.90;;;;;;5077612;28;20070;-89
2022/07/22 00:57:03;;;;;;;6.63;1.40;;;16.30;99.90;;;;;;5090407;28;20586;-91
2022/07/22 00:59:49;;;;;;;6.80;2.17;;;16.30;99.90;;;;;;5085849;28;20078;-88
2022/07/22 01:02:35;;;;;;;10.00;1.58;;;16.30;99.90;;;;;;5088559;28;20055;-88
2022/07/22 01:05:21;;;;;;;7.30;1.50;;;16.30;99.90;;;;;;5084614;28;20133;-90
2022/07/22 01:08:08;;;;;;;9.25;2.35;;;16.30;99.90;;;;;;5070233;28;20044;-87
2022/07/22 01:10:54;;;;;;;6.10;1.33;;;16.30;99.90;;;;;;5085594;28;20060;-88
2022/07/22 01:13:42;;;;;;;7.93;1.92;;;16.30;99.90;;;;;;5082372;28;20113;-88
2022/07/22 01:16:28;;;;;;;11.60;2.10;;;16.30;99.90;;;;;;5081276;28;20078;-87
2022/07/22 01:19:14;;;;;;;5.93;1.20;;;16.30;99.90;;;;;;5081169;28;20070;-89
2022/07/22 01:22:01;;;;;;;5.50;1.23;;;16.30;99.90;;;;;;5078478;28;20044;-86
2022/07/22 01:24:47;;;;;;;15.18;2.13;;;16.30;99.90;;;;;;5077585;28;20135;-84
2022/07/22 01:27:33;;;;;;;7.07;1.35;;;16.30;99.90;;;;;;5059115;28;20168;-86
2022/07/22 01:30:20;;;;;;;5.82;1.15;;;16.30;99.90;;;;;;5075302;28;20293;-90
2022/07/22 01:33:06;;;;;;;8.25;1.85;;;16.30;99.90;;;;;;5061142;28;20052;-88
2022/07/22 01:35:53;;;;;;;4.38;1.13;;;16.30;99.90;;;;;;5075631;28;20131;-88
2022/07/22 01:38:39;;;;;;;6.45;1.35;;;16.20;99.90;;;;;;5060317;28;20052;-87
2022/07/22 01:41:25;;;;;;;5.55;1.63;;;16.20;99.90;;;;;;5072803;28;20109;-85
2022/07/22 01:44:11;;;;;;;4.82;1.15;;;16.20;99.90;;;;;;5073498;28;20048;-90
2022/07/22 01:46:58;;;;;;;6.18;1.63;;;16.20;99.90;;;;;;5072020;28;20189;-89
2022/07/22 01:49:45;;;;;;;8.30;1.70;;;16.20;99.90;;;;;;5058536;28;20067;-85
2022/07/22 01:52:31;;;;;;;8.77;1.30;;;16.20;99.90;;;;;;5072837;28;20135;-84
2022/07/22 01:55:18;;;;;;;4.43;1.45;;;16.20;99.90;;;;;;5058673;28;20055;-86
2022/07/22 01:58:05;;;;;;;5.32;1.60;;;16.20;99.90;;;;;;5058467;28;20057;-87
2022/07/22 02:00:51;;;;;;;6.50;1.48;;;16.30;99.90;;;;;;5071643;28;20052;-88
2022/07/22 02:03:37;;;;;;;12.10;1.70;;;16.20;99.90;;;;;;5073036;28;20083;-84
2022/07/22 02:06:24;;;;;;;7.05;1.40;;;16.20;99.90;;;;;;5071688;28;20044;-88
2022/07/22 02:09:10;;;;;;;6.25;1.60;;;16.30;99.90;;;;;;5072999;28;20080;-87
2022/07/22 02:11:56;;;;;;;8.10;1.60;;;16.20;99.90;;;;;;5072075;28;20048;-87
2022/07/22 02:14:43;;;;;;;6.95;1.90;;;16.20;99.90;;;;;;5059365;28;20048;-87
2022/07/22 02:17:29;;;;;;;8.18;1.83;;;16.20;99.90;;;;;;5073148;28;20059;-85
2022/07/22 02:20:15;;;;;;;7.60;1.55;;;16.20;99.90;;;;;;5077916;28;20400;-90
2022/07/22 02:23:01;;;;;;;8.80;1.50;;;16.20;99.90;;;;;;5074390;28;20137;-86
2022/07/22 02:25:48;;;;;;;9.70;1.60;;;16.20;99.90;;;;;;5071985;28;20055;-85
2022/07/22 02:28:34;;;;;;;9.85;1.52;;;16.20;99.90;;;;;;5059155;28;20059;-85
2022/07/22 02:31:21;;;;;;;15.18;1.52;;;16.20;99.90;;;;;;5059355;28;20087;-86
2022/07/22 02:34:07;;;;;;;5.80;1.75;;;16.20;99.90;;;;;;5072697;28;20053;-86
2022/07/22 02:36:54;;;;;;;7.90;2.03;;;16.20;99.90;;;;;;5072795;28;20108;-87
2022/07/22 02:39:40;;;;;;;11.38;1.75;;;16.10;99.90;;;;;;5062647;28;20090;-84
2022/07/22 02:42:29;;;;;;;8.10;1.40;;;16.10;99.90;;;;;;5064751;28;20104;-85
2022/07/22 02:45:15;;;;;;;8.50;1.40;;;16.10;99.90;;;;;;5084088;28;20112;-86
2022/07/22 02:48:01;;;;;;;7.35;1.42;;;16.10;99.90;;;;;;5083938;28;20066;-86
2022/07/22 02:50:48;;;;;;;7.40;1.60;;;16.10;99.90;;;;;;5083357;28;20052;-87
2022/07/22 02:53:35;;;;;;;11.35;1.77;;;16.10;99.90;;;;;;5080497;28;20087;-89
2022/07/22 02:56:22;;;;;;;6.00;1.52;;;16.10;99.90;;;;;;5075428;28;20045;-88
2022/07/22 02:59:08;;;;;;;8.30;1.15;;;16.10;99.90;;;;;;5077013;28;20082;-89
2022/07/22 03:01:54;;;;;;;8.88;1.48;;;16.10;99.90;;;;;;5047944;28;20053;-86
2022/07/22 03:04:40;;;;;;;10.32;1.25;;;16.10;99.90;;;;;;5073225;28;20041;-90
2022/07/22 03:07:27;;;;;;;8.65;1.58;;;16.10;99.90;;;;;;5073153;28;20476;-87
2022/07/22 03:10:13;;;;;;;8.63;1.77;;;16.10;99.90;;;;;;5069813;28;20044;-85
2022/07/22 03:12:59;;;;;;;6.28;1.13;;;16.10;99.90;;;;;;5071749;28;20049;-86
2022/07/22 03:15:45;;;;;;;9.15;1.60;;;16.10;99.90;;;;;;5070739;28;20110;-85
2022/07/22 03:18:33;;;;;;;5.72;1.20;;;16.00;99.90;;;;;;5069952;28;20084;-86
2022/07/22 03:21:19;;;;;;;6.00;1.40;;;16.00;99.90;;;;;;5057232;28;20055;-88
2022/07/22 03:24:06;;;;;;;5.35;1.42;;;16.00;99.90;;;;;;5069321;28;20135;-84
2022/07/22 03:26:52;;;;;;;6.82;1.30;;;16.00;99.90;;;;;;5087234;28;20094;-86
2022/07/22 03:29:38;;;;;;;4.82;1.17;;;16.00;99.90;;;;;;5071650;28;20049;-85
2022/07/22 03:32:24;;;;;;;8.77;1.60;;;16.00;99.90;;;;;;5071661;28;20053;-85
2022/07/22 03:35:15;;;;;;;8.13;1.45;;;16.00;99.90;;;;;;5070418;28;20049;-85
2022/07/22 03:38:02;;;;;;;11.50;1.70;;;16.00;99.90;;;;;;5074947;28;20093;-87
2022/07/22 03:40:48;;;;;;;4.78;1.15;;;16.00;99.90;;;;;;5075221;28;20132;-88
2022/07/22 03:43:34;;;;;;;8.98;2.25;;;15.90;99.90;;;;;;5074929;28;20143;-88
2022/07/22 03:46:20;;;;;;;5.85;1.60;;;15.90;99.90;;;;;;5073998;28;20404;-89
2022/07/22 03:49:06;;;;;;;8.43;1.63;;;15.90;99.90;;;;;;5075320;28;20051;-89
2022/07/22 03:51:53;;;;;;;5.18;1.35;;;15.90;99.90;;;;;;5078609;28;20051;-88
2022/07/22 03:54:40;;;;;;;5.55;1.52;;;15.90;99.90;;;;;;5081086;28;20087;-91
2022/07/22 03:57:28;;;;;;;7.35;1.40;;;15.90;99.90;;;;;;5079503;28;20053;-89
2022/07/22 04:00:15;;;;;;;6.80;1.85;;;15.90;99.90;;;;;;5062820;28;20076;-89
2022/07/22 04:03:01;;;;;;;6.95;1.20;;;15.90;99.90;;;;;;5070300;28;20055;-85
2022/07/22 04:05:50;;;;;;;6.80;1.40;;;15.90;99.90;;;;;;5057047;28;20055;-86
2022/07/22 04:08:37;;;;;;;8.00;1.23;;;15.90;99.90;;;;;;5058327;28;20055;-85
2022/07/22 04:11:23;;;;;;;2.92;1.00;;;15.90;99.90;;;;;;5073183;28;20045;-87
2022/07/22 04:14:09;;;;;;;6.85;1.80;;;15.90;99.90;;;;;;5070272;28;20116;-86
2022/07/22 04:16:56;;;;;;;7.47;1.20;;;15.90;99.90;;;;;;5072556;28;20421;-87
2022/07/22 04:19:42;;;;;;;6.53;1.40;;;15.90;99.90;;;;;;5070622;28;20056;-85
2022/07/22 04:22:28;;;;;;;9.35;1.90;;;15.90;99.90;;;;;;5069302;28;20466;-85
2022/07/22 04:25:14;;;;;;;6.47;1.00;;;15.90;99.90;;;;;;5057793;28;20523;-87
2022/07/22 04:28:01;;;;;;;10.52;2.00;;;15.90;99.90;;;;;;5060662;28;20044;-85
2022/07/22 04:30:47;;;;;;;6.38;1.40;;;15.90;99.90;;;;;;5075031;28;20056;-87
2022/07/22 04:33:33;;;;;;;7.47;1.40;;;15.90;99.90;;;;;;5075534;28;20052;-86
2022/07/22 04:36:19;;;;;;;6.18;1.30;;;16.00;99.90;;;;;;5073286;28;20053;-86
2022/07/22 04:39:05;;;;;;;9.35;1.20;;;16.00;99.90;;;;;;5061192;28;20067;-88
2022/07/22 04:41:51;;;;;;;8.55;2.25;;;16.00;99.90;;;;;;5074363;28;20044;-87
2022/07/22 04:44:38;;;;;;;6.03;0.95;;;16.00;99.90;;;;;;5073730;28;20076;-89
2022/07/22 04:47:24;;;;;;;7.70;1.02;;;16.00;99.90;;;;;;5074754;28;20182;-87
2022/07/22 04:50:10;;;;;;;5.75;1.02;;;16.00;99.90;;;;;;5074487;28;20130;-84
2022/07/22 04:52:56;;;;;;;7.40;1.23;;;16.10;99.90;;;;;;5074873;28;20040;-87
2022/07/22 04:55:44;;;;;;;5.60;1.38;;;16.10;99.90;;;;;;5074590;28;20095;-89
2022/07/22 04:58:30;;;;;;;9.63;1.23;;;16.10;99.90;;;;;;5074916;28;20514;-84
2022/07/22 05:01:17;;;;;;;7.22;1.30;;;16.10;99.90;;;;;;5077558;28;20055;-85
2022/07/22 05:04:04;;;;;;;6.47;1.42;;;16.10;99.90;;;;;;5079570;28;20052;-87
2022/07/22 05:06:50;;;;;;;5.28;1.00;;;16.20;99.90;;;;;;5062712;28;20135;-85
2022/07/22 05:09:37;;;;;;;8.48;1.73;;;16.10;99.90;;;;;;5061384;28;20051;-86
2022/07/22 05:12:23;;;;;;;6.97;1.30;;;16.10;99.90;;;;;;5075115;28;20111;-83
2022/07/22 05:15:10;;;;;;;6.13;1.17;;;16.20;99.90;;;;;;5074903;28;20067;-85
2022/07/22 05:17:56;;;;;;;6.40;1.48;;;16.20;99.90;;;;;;5076627;28;20083;-86
2022/07/22 05:20:43;;;;;;;6.20;1.40;;;16.20;99.90;;;;;;5062319;28;20048;-83
2022/07/22 05:23:30;;;;;;;6.47;1.17;;;16.20;99.90;;;;;;5074618;28;20423;-86
2022/07/22 05:26:16;;;;;;;4.47;1.40;;;16.20;99.90;;;;;;5061312;28;20135;-86
2022/07/22 05:29:03;;;;;;;2.92;1.02;;;16.30;99.90;;;;;;5074179;28;20049;-86
2022/07/22 05:31:49;;;;;;;3.97;0.88;;;16.30;99.90;;;;;;5075879;28;20095;-84
2022/07/22 05:34:35;;;;;;;5.95;1.17;;;16.30;99.90;;;;;;5064569;28;20479;-88
2022/07/22 05:37:22;;;;;;;5.60;0.85;;;16.30;99.90;;;;;;5080876;28;20102;-87
2022/07/22 05:40:09;;;;;;;7.78;1.80;;;16.40;99.90;;;;;;5081839;28;20049;-87
2022/07/22 05:42:55;;;;;;;3.97;0.85;;;16.40;99.90;;;;;;5077371;28;20048;-85
2022/07/22 05:45:41;;;;;;;4.72;0.80;;;16.40;99.90;;;;;;5080098;28;20075;-85
2022/07/22 05:48:27;;;;;;;8.68;1.33;;;16.50;99.90;;;;;;5067445;28;20404;-85
2022/07/22 05:51:14;;;;;;;6.07;1.13;;;16.50;99.90;;;;;;5081491;28;20067;-87
2022/07/22 05:54:02;;;;;;;4.15;0.90;;;16.50;99.90;;;;;;5079724;28;20110;-88
2022/07/22 05:56:49;;;;;;;5.47;0.98;;;16.60;99.90;;;;;;5081486;28;20068;-87
2022/07/22 05:59:35;;;;;;;10.00;1.38;;;16.60;99.90;;;;;;5079272;28;20115;-84
2022/07/22 06:02:22;;;;;;;8.00;1.00;;;16.60;99.90;;;;;;5082597;28;20048;-85
2022/07/22 06:05:08;;;;;;;3.55;1.00;;;16.50;99.90;;;;;;5064610;28;20044;-86
2022/07/22 06:07:54;;;;;;;3.38;0.82;;;16.60;99.90;;;;;;5078072;28;20091;-86
2022/07/22 06:10:41;;;;;;;5.53;1.08;;;16.60;99.90;;;;;;5083111;28;20078;-84
2022/07/22 06:13:27;;;;;;;7.20;1.00;;;16.60;99.90;;;;;;5062826;28;20135;-84
2022/07/22 06:16:13;;;;;;;6.18;0.90;;;16.60;99.90;;;;;;5064873;28;20045;-82
2022/07/22 06:18:59;;;;;;;6.47;1.10;;;16.70;99.90;;;;;;5079011;28;20041;-86
2022/07/22 06:21:46;;;;;;;7.40;1.55;;;16.70;99.90;;;;;;5073815;28;20048;-84
2022/07/22 06:24:32;;;;;;;5.07;0.88;;;16.80;99.90;;;;;;5074705;28;20507;-85
2022/07/22 06:27:18;;;;;;;7.60;1.30;;;16.80;99.90;;;;;;5071636;28;20052;-85
2022/07/22 06:30:05;;;;;;;11.30;1.63;;;16.80;99.90;;;;;;5058659;28;20056;-85
2022/07/22 06:32:51;;;;;;;6.30;1.15;;;16.90;99.90;;;;;;5072223;28;20051;-85
2022/07/22 06:35:40;;;;;;;7.15;1.33;;;16.90;99.90;;;;;;5073102;28;20047;-85
2022/07/22 06:38:26;;;;;;;6.55;1.10;;;16.90;99.90;;;;;;5044718;28;20041;-87
2022/07/22 06:41:13;;;;;;;7.38;0.90;;;17.00;99.90;;;;;;5073930;28;20116;-85
2022/07/22 06:43:59;;;;;;;8.70;1.08;;;17.00;99.90;;;;;;5075627;28;20063;-89
2022/07/22 06:46:45;;;;;;;4.43;0.95;;;17.00;99.90;;;;;;5078458;28;20055;-88
2022/07/22 06:49:34;;;;;;;10.27;1.30;;;17.00;99.90;;;;;;5077827;28;20052;-90
2022/07/22 06:52:20;;;;;;;6.15;1.20;;;17.10;99.90;;;;;;5076702;28;20053;-85
2022/07/22 06:55:08;;;;;;;8.05;1.70;;;17.10;99.90;;;;;;5079640;28;20044;-84
2022/07/22 06:57:54;;;;;;;4.75;1.00;;;17.10;99.90;;;;;;5077952;28;20194;-87
2022/07/22 07:00:41;;;;;;;8.30;1.40;;;17.10;99.90;;;;;;5073719;28;20052;-89
2022/07/22 07:03:27;;;;;;;5.15;0.88;;;17.10;99.90;;;;;;5061406;28;20048;-89
2022/07/22 07:06:14;;;;;;;7.93;1.00;;;17.10;99.90;;;;;;5075083;28;20044;-86
2022/07/22 07:09:01;;;;;;;5.97;1.17;;;17.10;99.90;;;;;;5077922;28;20373;-87
2022/07/22 07:11:47;;;;;;;5.57;1.17;;;17.10;99.90;;;;;;5085651;28;20075;-84
2022/07/22 07:14:36;;;;;;;6.53;2.22;;;17.10;99.90;;;;;;5083375;28;20471;-88
2022/07/22 07:17:25;;;;;;;7.38;1.23;;;17.10;99.90;;;;;;5083866;28;20048;-84
2022/07/22 07:20:11;;;;;;;7.45;1.40;;;17.10;99.90;;;;;;5084217;28;20044;-84
2022/07/22 07:23:01;;;;;;;6.65;2.15;;;17.10;99.90;;;;;;5082849;28;20052;-85
2022/07/22 07:25:49;;;;;;;7.13;1.20;;;17.10;99.90;;;;;;5088453;28;20049;-91
2022/07/22 07:28:35;;;;;;;14.32;1.63;;;17.00;99.90;;;;;;5082624;28;20131;-85
2022/07/22 07:31:21;;;;;;;6.95;1.20;;;17.10;99.90;;;;;;5084176;28;20044;-89
2022/07/22 07:34:08;;;;;;;9.30;1.23;;;17.10;99.90;;;;;;5081998;28;20108;-89
2022/07/22 07:36:54;;;;;;;10.27;1.27;;;17.10;99.90;;;;;;5078876;28;20084;-88
2022/07/22 07:39:41;;;;;;;5.03;1.10;;;17.20;99.90;;;;;;5063667;28;20044;-85
2022/07/22 07:42:27;;;;;;;9.60;1.23;;;17.20;99.90;;;;;;5079970;28;20049;-87
2022/07/22 07:45:14;;;;;;;5.15;1.20;;;17.30;99.90;;;;;;5065579;28;20104;-89
2022/07/22 07:48:05;;;;;;;6.00;0.88;;;17.40;99.90;;;;;;5080554;28;20052;-88
2022/07/22 07:50:51;;;;;;;3.88;1.17;;;17.40;99.90;;;;;;5064474;28;20044;-89
2022/07/22 07:53:38;;;;;;;6.35;1.10;;;17.50;99.90;;;;;;5080046;28;20052;-88
2022/07/22 07:56:24;;;;;;;3.67;0.85;;;17.70;99.90;;;;;;5081507;28;20048;-87
2022/07/22 07:59:10;;;;;;;3.45;0.80;;;17.70;99.90;;;;;;5080781;28;20060;-89
2022/07/22 08:01:57;;;;;;;8.57;1.00;;;17.80;99.90;;;;;;5078945;28;20044;-90
2022/07/22 08:04:43;;;;;;;6.03;0.80;;;17.80;99.90;;;;;;5079537;28;20072;-86
2022/07/22 08:07:29;;;;;;;5.90;1.20;;;17.90;99.90;;;;;;5075461;28;20044;-86
2022/07/22 08:10:16;;;;;;;6.60;1.27;;;17.90;99.90;;;;;;5075554;28;20056;-85
2022/07/22 08:13:04;;;;;;;8.32;1.23;;;17.90;99.90;;;;;;5074104;28;20132;-89
2022/07/22 08:15:51;;;;;;;11.68;2.28;;;18.00;99.90;;;;;;5074257;28;20052;-86
2022/07/22 08:18:46;;;;;;;4.88;0.88;;;18.00;99.90;;;;;;5077797;28;20403;-85
2022/07/22 08:21:32;;;;;;;7.68;1.27;;;18.10;99.90;;;;;;5074889;28;20048;-86
2022/07/22 08:24:19;;;;;;;3.35;0.90;;;18.10;99.90;;;;;;5075682;28;20110;-85
2022/07/22 08:27:05;;;;;;;3.95;0.80;;;18.20;99.90;;;;;;5072824;28;20055;-86
2022/07/22 08:29:51;;;;;;;2.33;0.68;;;18.30;99.90;;;;;;5070475;28;20044;-84
2022/07/22 08:32:38;;;;;;;3.70;0.73;;;18.30;99.90;;;;;;5071551;28;20066;-82
2022/07/22 08:35:24;;;;;;;4.50;0.80;;;18.50;99.90;;;;;;5073276;28;20102;-85
2022/07/22 08:38:10;;;;;;;2.72;0.60;;;18.50;99.90;;;;;;5072333;28;20559;-88
2022/07/22 08:40:57;;;;;;;3.47;0.60;;;18.60;99.90;;;;;;5072099;28;20143;-85
2022/07/22 08:43:44;;;;;;;4.65;1.10;;;18.60;99.90;;;;;;5071781;28;20381;-86
2022/07/22 08:46:31;;;;;;;3.60;0.60;;;18.60;99.90;;;;;;5071979;28;20393;-84
2022/07/22 08:49:17;;;;;;;4.38;0.60;;;18.70;99.90;;;;;;5072666;28;20519;-84
2022/07/22 08:52:03;;;;;;;3.75;0.50;;;18.70;99.90;;;;;;5074071;28;20048;-85
2022/07/22 08:54:50;;;;;;;6.45;0.70;;;18.70;99.90;;;;;;5076898;28;20052;-84
2022/07/22 08:57:39;;;;;;;1.63;0.50;;;18.90;99.90;;;;;;5080158;28;20173;-83
2022/07/22 09:00:25;;;;;;;4.85;0.55;;;19.10;99.90;;;;;;5074806;28;20060;-84
2022/07/22 09:03:25;;;;;;;1.88;0.52;;;19.30;99.90;;;;;;5072073;28;20087;-87
2022/07/22 09:06:11;;;;;;;7.22;0.90;;;19.40;99.90;;;;;;5072197;28;20040;-83
2022/07/22 09:09:00;;;;;;;8.30;0.63;;;19.60;99.90;;;;;;5073864;28;20049;-83
2022/07/22 09:11:47;;;;;;;4.70;1.58;;;19.70;99.90;;;;;;5085095;28;20052;-86
2022/07/22 09:14:45;;;;;;;5.97;1.05;;;19.70;99.90;;;;;;5092989;28;20048;-86
2022/07/22 09:17:38;;;;;;;4.10;0.77;;;19.80;99.90;;;;;;5093550;28;20045;-84
2022/07/22 09:20:26;;;;;;;3.80;0.80;;;19.90;99.90;;;;;;5087226;28;20049;-83
2022/07/22 09:23:15;;;;;;;4.60;1.25;;;20.10;99.90;;;;;;5075488;28;20061;-85
2022/07/22 09:26:01;;;;;;;3.95;0.73;;;20.30;99.90;;;;;;5076100;28;20051;-85
2022/07/22 09:28:56;;;;;;;2.08;0.35;;;20.40;99.90;;;;;;5075067;28;20106;-84
2022/07/22 09:31:49;;;;;;;1.98;0.60;;;20.70;99.90;;;;;;5077859;28;20070;-86
2022/07/22 09:34:35;;;;;;;3.17;0.60;;;20.90;99.90;;;;;;5077161;28;20059;-87
2022/07/22 09:37:21;;;;;;;2.22;0.50;;;20.80;99.90;;;;;;5076242;28;20045;-86
2022/07/22 09:40:16;;;;;;;5.18;0.60;;;20.70;99.90;;;;;;5076728;28;20040;-86
2022/07/22 09:43:04;;;;;;;;;;;20.50;99.90;;;;;;5062687;28;20056;-87
2022/07/22 09:45:59;;;;;;;4.28;1.38;;;20.30;99.60;;;;;;5076074;28;19927;-85
2022/07/22 09:48:45;;;;;;;1.92;0.70;;;20.20;99.90;;;;;;5074628;28;20047;-83
2022/07/22 09:51:34;;;;;;;1.60;0.40;;;20.00;99.90;;;;;;5076711;28;20080;-86
2022/07/22 09:54:21;;;;;;;5.45;0.70;;;19.90;99.90;;;;;;5075872;28;20102;-85
2022/07/22 09:57:07;;;;;;;3.60;0.60;;;19.70;99.90;;;;;;5078893;28;20051;-85
2022/07/22 09:59:55;;;;;;;1.20;0.35;;;19.50;99.90;;;;;;5076194;28;20052;-84
2022/07/22 10:02:51;;;;;;;1.98;0.50;;;19.50;99.90;;;;;;5073803;28;20053;-86
2022/07/22 10:05:39;;;;;;;2.17;0.50;;;19.50;99.90;;;;;;5076922;28;20040;-89
2022/07/22 10:08:27;;;;;;;6.57;2.40;;;19.40;99.90;;;;;;5062966;28;20053;-86
2022/07/22 10:11:13;;;;;;;1.83;0.25;;;19.40;99.90;;;;;;5065563;28;20045;-88
2022/07/22 10:14:00;;;;;;;2.50;0.45;;;19.50;99.90;;;;;;5080008;28;20044;-85
2022/07/22 10:16:47;;;;;;;2.17;0.30;;;19.60;99.90;;;;;;5076631;28;20051;-89
2022/07/22 10:19:34;;;;;;;3.72;0.45;;;19.70;99.90;;;;;;5075505;28;20500;-89
2022/07/22 10:22:39;;;;;;;2.53;0.40;;;19.90;99.90;;;;;;5077869;28;20052;-83
2022/07/22 10:25:31;;;;;;;2.67;0.57;;;19.80;99.60;;;;;;5074984;28;20049;-86
2022/07/22 10:28:23;;;;;;;2.40;0.28;;;19.80;99.90;;;;;;5073760;28;20048;-86
2022/07/22 10:31:16;;;;;;;2.42;0.60;;;20.10;99.90;;;;;;5071646;28;20052;-89
2022/07/22 10:34:03;;;;;;;4.60;0.95;;;20.30;99.30;;;;;;5072311;28;20079;-85
2022/07/22 10:36:50;;;;;;;3.38;0.55;;;20.20;99.60;;;;;;5060032;28;20536;-85
2022/07/22 10:40:08;;;;;;;6.68;0.70;;;20.30;99.90;;;;;;5076443;28;20127;-87
2022/07/22 10:43:04;;;;;;;5.78;1.05;;;20.20;99.20;;;;;;5072674;28;20058;-84
2022/07/22 10:45:59;;;;;;;1.90;0.52;;;20.00;99.90;;;;;;5072170;28;20621;-85
2022/07/22 10:48:48;;;;;;;4.40;0.73;;;20.00;99.70;;;;;;5048787;28;20052;-86
2022/07/22 10:51:34;;;;;;;3.13;0.52;;;20.00;99.90;;;;;;5079434;28;20048;-87
2022/07/22 10:54:20;;;;;;;2.67;0.60;;;20.10;99.90;;;;;;5059286;28;20540;-88
2022/07/22 10:57:06;;;;;;;6.35;0.85;;;20.20;99.90;;;;;;5070356;28;20500;-86
2022/07/22 10:59:56;;;;;;;4.13;0.55;;;20.30;99.80;;;;;;5072342;28;20400;-85
2022/07/22 11:02:42;;;;;;;7.07;0.70;;;20.40;99.40;;;;;;5072051;28;20056;-88
2022/07/22 11:05:30;;;;;;;4.13;0.57;;;20.50;99.60;;;;;;5057205;28;20041;-87
2022/07/22 11:08:18;;;;;;;4.82;0.88;;;20.60;99.50;;;;;;5074243;28;20496;-84
2022/07/22 11:11:04;;;;;;;4.53;0.70;;;20.70;99.20;;;;;;5075827;28;20056;-86
2022/07/22 11:13:50;;;;;;;5.80;0.98;;;20.90;99.40;;;;;;5076984;28;20053;-85
2022/07/22 11:16:39;;;;;;;5.22;0.65;;;21.10;99.50;;;;;;5078265;28;20106;-85
2022/07/22 11:19:30;;;;;;;4.72;1.00;;;21.10;99.30;;;;;;5079903;28;20475;-85
2022/07/22 11:22:17;;;;;;;3.33;0.80;;;21.10;99.20;;;;;;5078484;28;20052;-86
2022/07/22 11:25:06;;;;;;;4.78;0.80;;;21.20;99.50;;;;;;5080228;28;20041;-84
2022/07/22 11:27:52;;;;;;;7.25;1.02;;;21.20;99.80;;;;;;5078325;28;20061;-86
2022/07/22 11:30:41;;;;;;;10.48;1.10;;;21.30;99.90;;;;;;5079081;28;20047;-85
2022/07/22 11:33:27;;;;;;;7.88;1.70;;;21.30;99.60;;;;;;5078051;28;20048;-87
2022/07/22 11:36:13;;;;;;;8.48;1.23;;;21.10;99.50;;;;;;5057124;28;20041;-84
2022/07/22 11:39:00;;;;;;;6.07;0.88;;;21.00;99.90;;;;;;5072044;28;20048;-84
2022/07/22 11:41:46;;;;;;;3.08;0.50;;;21.20;99.90;;;;;;5069835;28;20048;-84
2022/07/22 11:44:35;;;;;;;2.47;0.57;;;21.00;99.90;;;;;;5069718;28;20515;-84
2022/07/22 11:47:21;;;;;;;8.02;0.98;;;21.00;99.70;;;;;;5057549;28;20059;-87
2022/07/22 11:50:08;;;;;;;5.57;0.73;;;21.10;99.70;;;;;;5070374;28;20127;-85
2022/07/22 11:52:54;;;;;;;5.75;0.70;;;20.80;99.50;;;;;;5070473;28;20216;-82
2022/07/22 11:55:40;;;;;;;5.80;1.05;;;20.90;99.60;;;;;;5072189;28;20404;-84
2022/07/22 11:59:04;;;;;;;1.77;0.50;;;20.90;99.60;;;;;;5072828;28;20048;-84
2022/07/22 12:01:54;;;;;;;2.00;0.40;;;20.80;98.70;;;;;;5012412;28;20057;-83
2022/07/22 12:04:41;;;;;;;5.20;0.80;;;20.70;99.60;;;;;;5072397;28;20515;-84
2022/07/22 12:07:27;;;;;;;3.97;0.88;;;20.70;99.10;;;;;;5073466;28;20056;-82
2022/07/22 12:10:13;;;;;;;2.97;0.57;;;20.60;99.30;;;;;;5074859;28;20040;-82
2022/07/22 12:13:00;;;;;;;3.72;0.77;;;20.60;99.30;;;;;;5076881;28;20056;-83
2022/07/22 12:15:46;;;;;;;5.43;0.88;;;20.70;99.40;;;;;;5079516;28;20044;-84
2022/07/22 12:18:39;;;;;;;5.13;0.60;;;20.60;99.20;;;;;;5073940;28;20111;-84
2022/07/22 12:21:28;;;;;;;2.08;0.50;;;20.60;99.10;;;;;;5070554;28;20153;-84
2022/07/22 12:24:14;;;;;;;2.13;0.50;;;20.50;99.30;;;;;;5070411;28;20053;-84
2022/07/22 12:27:02;;;;;;;3.63;0.68;;;20.70;99.60;;;;;;5070313;28;20048;-83
2022/07/22 12:29:49;;;;;;;4.03;0.57;;;20.80;99.00;;;;;;5070717;28;20400;-84
2022/07/22 12:32:35;;;;;;;8.38;1.52;;;21.00;98.70;;;;;;5069341;28;20385;-86
2022/07/22 12:35:22;;;;;;;4.47;0.50;;;21.00;98.70;;;;;;5069856;28;20052;-87
2022/07/22 12:38:09;;;;;;;6.45;0.70;;;21.20;98.90;;;;;;5070708;28;20084;-86
2022/07/22 12:40:56;;;;;;;6.22;1.35;;;21.20;98.50;;;;;;5070140;28;20404;-86
2022/07/22 12:43:45;;;;;;;4.03;1.17;;;21.10;98.20;;;;;;5070879;28;20052;-86
2022/07/22 12:46:31;;;;;;;3.45;0.75;;;21.20;98.00;;;;;;5071460;28;20110;-83
2022/07/22 12:49:19;;;;;;;4.25;0.77;;;21.10;98.10;;;;;;5073565;28;20040;-84
2022/07/22 12:52:06;;;;;;;3.20;0.63;;;21.10;98.00;;;;;;5074533;28;20052;-83
2022/07/22 12:54:53;;;;;;;5.47;0.70;;;21.10;98.20;;;;;;5073726;28;20044;-86
2022/07/22 12:57:39;;;;;;;3.25;0.73;;;21.00;98.40;;;;;;5073578;28;20136;-86
2022/07/22 13:00:31;;;;;;;5.35;0.70;;;20.80;98.40;;;;;;5073248;28;20087;-84
2022/07/22 13:03:19;;;;;;;2.58;0.68;;;20.80;98.50;;;;;;5058994;28;20454;-86
2022/07/22 13:06:06;;;;;;;2.40;0.50;;;20.90;98.60;;;;;;5072952;28;20139;-84
2022/07/22 13:08:53;;;;;;;4.97;0.57;;;20.90;98.70;;;;;;5072861;28;20076;-85
2022/07/22 13:11:39;;;;;;;3.67;0.80;;;20.60;98.70;;;;;;5073614;28;20062;-86
2022/07/22 13:14:25;;;;;;;2.78;0.50;;;20.70;98.80;;;;;;5073589;28;20551;-86
2022/07/22 13:17:12;;;;;;;5.00;0.50;;;20.80;98.80;;;;;;5072054;28;20137;-83
2022/07/22 13:19:58;;;;;;;3.00;0.60;;;20.80;98.50;;;;;;5072142;28;20056;-84
2022/07/22 13:22:45;;;;;;;5.82;0.55;;;20.70;98.40;;;;;;5072974;28;20049;-83
2022/07/22 13:25:32;;;;;;;4.30;0.47;;;20.70;98.50;;;;;;5074251;28;20489;-83
2022/07/22 13:28:19;;;;;;;5.10;0.70;;;20.90;98.70;;;;;;5060437;28;20058;-86
2022/07/22 13:31:05;;;;;;;4.97;0.60;;;21.10;98.30;;;;;;5075994;28;20055;-86
2022/07/22 13:33:54;;;;;;;5.78;0.60;;;21.20;98.00;;;;;;5072544;28;20048;-85
2022/07/22 13:36:40;;;;;;;3.25;0.60;;;21.40;97.80;;;;;;5059225;28;20052;-85
2022/07/22 13:39:27;;;;;;;4.05;0.90;;;21.20;97.60;;;;;;5073800;28;20110;-85
2022/07/22 13:42:13;;;;;;;3.65;0.95;;;21.30;97.70;;;;;;5072192;28;20127;-84
2022/07/22 13:44:59;;;;;;;4.53;0.50;;;21.20;97.50;;;;;;5075014;28;20079;-84
2022/07/22 13:47:46;;;;;;;5.78;0.90;;;21.20;97.50;;;;;;5075317;28;20057;-83
2022/07/22 13:50:32;;;;;;;2.42;0.55;;;21.20;97.60;;;;;;5065751;28;20044;-84
2022/07/22 13:53:18;;;;;;;3.35;0.60;;;21.30;97.80;;;;;;5063620;28;20412;-84
2022/07/22 13:56:05;;;;;;;2.58;0.63;;;21.30;97.30;;;;;;5062241;28;20056;-84
2022/07/22 13:58:51;;;;;;;2.67;0.40;;;21.70;97.30;;;;;;5060234;28;20055;-84
2022/07/22 14:01:37;;;;;;;3.55;0.80;;;21.90;96.70;;;;;;5074922;28;20048;-84
2022/07/22 14:04:25;;;;;;;5.25;1.10;;;22.00;96.20;;;;;;5072665;28;20052;-83
2022/07/22 14:07:11;;;;;;;4.68;0.60;;;22.00;96.10;;;;;;5059578;28;20055;-86
2022/07/22 14:09:58;;;;;;;3.05;0.55;;;22.00;96.30;;;;;;5073770;28;20506;-87
2022/07/22 14:12:45;;;;;;;6.15;0.82;;;21.90;96.40;;;;;;5077230;28;20048;-86
2022/07/22 14:15:31;;;;;;;3.00;0.70;;;21.80;96.60;;;;;;5078624;28;20044;-83
2022/07/22 14:18:18;;;;;;;4.13;0.60;;;21.60;96.90;;;;;;5081883;28;20087;-85
2022/07/22 14:21:04;;;;;;;3.63;0.40;;;21.50;97.40;;;;;;5075263;28;20136;-87
2022/07/22 14:23:50;;;;;;;1.92;0.50;;;21.40;97.20;;;;;;5073814;28;20057;-86
2022/07/22 14:26:37;;;;;;;2.30;0.40;;;21.30;97.50;;;;;;5075225;28;20043;-85
2022/07/22 14:29:24;;;;;;;3.10;0.50;;;21.20;97.40;;;;;;5074685;28;20067;-81